sensor_id;sensor_type;location;lat;lon;timestamp;P1;durP1;ratioP1;P2;durP2;ratioP2
30307;SDS011;17114;52.314;8.910;2023-04-03T00:00:59;10.40;;;2.33;;
30307;SDS011;17114;52.314;8.910;2023-04-03T00:03:27;5.72;;;1.92;;
30307;SDS011;17114;52.314;8.910;2023-04-03T00:05:54;6.00;;;2.28;;
30307;SDS011;17114;52.314;8.910;2023-04-03T00:08:22;4.80;;;1.83;;
30307;SDS011;17114;52.314;8.910;2023-04-03T00:10:49;5.30;;;1.88;;
30307;SDS011;17114;52.314;8.910;2023-04-03T00:13:17;7.70;;;2.25;;
30307;SDS011;17114;52.314;8.910;2023-04-03T00:15:45;11.93;;;2.08;;
30307;SDS011;17114;52.314;8.910;2023-04-03T00:18:13;7.88;;;2.30;;
30307;SDS011;17114;52.314;8.910;2023-04-03T00:20:40;7.93;;;1.98;;
30307;SDS011;17114;52.314;8.910;2023-04-03T00:23:07;10.82;;;2.30;;
30307;SDS011;17114;52.314;8.910;2023-04-03T00:25:34;4.35;;;1.85;;
30307;SDS011;17114;52.314;8.910;2023-04-03T00:28:03;4.25;;;1.70;;
30307;SDS011;17114;52.314;8.910;2023-04-03T00:30:30;7.95;;;2.08;;
30307;SDS011;17114;52.314;8.910;2023-04-03T00:32:58;6.90;;;1.83;;
30307;SDS011;17114;52.314;8.910;2023-04-03T00:35:27;6.53;;;2.38;;
30307;SDS011;17114;52.314;8.910;2023-04-03T00:37:57;6.78;;;1.98;;
30307;SDS011;17114;52.314;8.910;2023-04-03T00:40:25;6.32;;;2.00;;
30307;SDS011;17114;52.314;8.910;2023-04-03T00:42:57;9.27;;;1.80;;
30307;SDS011;17114;52.314;8.910;2023-04-03T00:48:07;3.92;;;1.70;;
30307;SDS011;17114;52.314;8.910;2023-04-03T00:50:39;5.40;;;2.00;;
30307;SDS011;17114;52.314;8.910;2023-04-03T00:53:10;6.00;;;1.80;;
30307;SDS011;17114;52.314;8.910;2023-04-03T00:55:51;3.80;;;1.70;;
30307;SDS011;17114;52.314;8.910;2023-04-03T00:58:25;9.45;;;2.33;;
30307;SDS011;17114;52.314;8.910;2023-04-03T01:00:59;4.50;;;1.90;;
30307;SDS011;17114;52.314;8.910;2023-04-03T01:03:33;4.20;;;1.40;;
30307;SDS011;17114;52.314;8.910;2023-04-03T01:06:01;7.28;;;2.15;;
30307;SDS011;17114;52.314;8.910;2023-04-03T01:08:29;20.10;;;2.47;;
30307;SDS011;17114;52.314;8.910;2023-04-03T01:10:57;5.32;;;2.47;;
30307;SDS011;17114;52.314;8.910;2023-04-03T01:13:26;4.68;;;1.90;;
30307;SDS011;17114;52.314;8.910;2023-04-03T01:16:00;8.32;;;2.22;;
30307;SDS011;17114;52.314;8.910;2023-04-03T01:18:32;6.45;;;2.15;;
30307;SDS011;17114;52.314;8.910;2023-04-03T01:24:48;5.35;;;2.08;;
30307;SDS011;17114;52.314;8.910;2023-04-03T01:27:08;5.32;;;2.33;;
30307;SDS011;17114;52.314;8.910;2023-04-03T01:29:38;8.88;;;2.15;;
30307;SDS011;17114;52.314;8.910;2023-04-03T01:32:09;9.10;;;1.95;;
30307;SDS011;17114;52.314;8.910;2023-04-03T01:34:38;7.47;;;2.10;;
30307;SDS011;17114;52.314;8.910;2023-04-03T01:37:06;7.15;;;2.10;;
30307;SDS011;17114;52.314;8.910;2023-04-03T01:39:33;4.95;;;1.80;;
30307;SDS011;17114;52.314;8.910;2023-04-03T01:42:00;8.73;;;2.20;;
30307;SDS011;17114;52.314;8.910;2023-04-03T01:44:28;6.10;;;2.55;;
30307;SDS011;17114;52.314;8.910;2023-04-03T01:46:55;6.55;;;1.90;;
30307;SDS011;17114;52.314;8.910;2023-04-03T01:49:22;7.40;;;1.90;;
30307;SDS011;17114;52.314;8.910;2023-04-03T01:51:49;8.65;;;2.10;;
30307;SDS011;17114;52.314;8.910;2023-04-03T01:54:16;7.95;;;2.22;;
30307;SDS011;17114;52.314;8.910;2023-04-03T01:56:44;8.20;;;2.08;;
30307;SDS011;17114;52.314;8.910;2023-04-03T01:59:10;8.23;;;2.28;;
30307;SDS011;17114;52.314;8.910;2023-04-03T02:01:38;8.77;;;2.30;;
30307;SDS011;17114;52.314;8.910;2023-04-03T02:04:05;9.98;;;2.10;;
30307;SDS011;17114;52.314;8.910;2023-04-03T02:06:32;8.50;;;2.05;;
30307;SDS011;17114;52.314;8.910;2023-04-03T02:09:00;7.90;;;2.38;;
30307;SDS011;17114;52.314;8.910;2023-04-03T02:11:27;4.60;;;2.28;;
30307;SDS011;17114;52.314;8.910;2023-04-03T02:13:54;9.60;;;2.38;;
30307;SDS011;17114;52.314;8.910;2023-04-03T02:16:21;8.23;;;1.80;;
30307;SDS011;17114;52.314;8.910;2023-04-03T02:18:49;3.28;;;1.98;;
30307;SDS011;17114;52.314;8.910;2023-04-03T02:21:16;7.60;;;2.08;;
30307;SDS011;17114;52.314;8.910;2023-04-03T02:23:43;8.35;;;2.03;;
30307;SDS011;17114;52.314;8.910;2023-04-03T02:26:11;7.40;;;2.00;;
30307;SDS011;17114;52.314;8.910;2023-04-03T02:28:40;6.50;;;2.03;;
30307;SDS011;17114;52.314;8.910;2023-04-03T02:31:08;11.60;;;2.33;;
30307;SDS011;17114;52.314;8.910;2023-04-03T02:33:36;6.75;;;1.85;;
30307;SDS011;17114;52.314;8.910;2023-04-03T02:36:04;9.88;;;2.13;;
30307;SDS011;17114;52.314;8.910;2023-04-03T02:38:32;6.75;;;1.92;;
30307;SDS011;17114;52.314;8.910;2023-04-03T02:41:00;6.10;;;1.85;;
30307;SDS011;17114;52.314;8.910;2023-04-03T02:43:32;5.13;;;1.75;;
30307;SDS011;17114;52.314;8.910;2023-04-03T02:46:00;3.40;;;1.75;;
30307;SDS011;17114;52.314;8.910;2023-04-03T02:48:27;7.43;;;2.63;;
30307;SDS011;17114;52.314;8.910;2023-04-03T02:50:54;8.57;;;2.00;;
30307;SDS011;17114;52.314;8.910;2023-04-03T02:53:22;7.20;;;2.20;;
30307;SDS011;17114;52.314;8.910;2023-04-03T02:55:51;6.80;;;2.08;;
30307;SDS011;17114;52.314;8.910;2023-04-03T02:58:18;9.15;;;2.40;;
30307;SDS011;17114;52.314;8.910;2023-04-03T03:00:46;7.30;;;2.47;;
30307;SDS011;17114;52.314;8.910;2023-04-03T03:03:14;7.35;;;2.03;;
30307;SDS011;17114;52.314;8.910;2023-04-03T03:05:42;5.85;;;1.80;;
30307;SDS011;17114;52.314;8.910;2023-04-03T03:08:10;7.82;;;2.13;;
30307;SDS011;17114;52.314;8.910;2023-04-03T03:10:37;7.22;;;2.65;;
30307;SDS011;17114;52.314;8.910;2023-04-03T03:13:04;7.40;;;2.20;;
30307;SDS011;17114;52.314;8.910;2023-04-03T03:15:32;8.52;;;2.38;;
30307;SDS011;17114;52.314;8.910;2023-04-03T03:17:59;4.88;;;2.38;;
30307;SDS011;17114;52.314;8.910;2023-04-03T03:20:27;10.00;;;2.75;;
30307;SDS011;17114;52.314;8.910;2023-04-03T03:22:55;7.70;;;2.22;;
30307;SDS011;17114;52.314;8.910;2023-04-03T03:25:24;10.52;;;3.42;;
30307;SDS011;17114;52.314;8.910;2023-04-03T03:27:52;7.45;;;2.38;;
30307;SDS011;17114;52.314;8.910;2023-04-03T03:30:19;6.88;;;2.28;;
30307;SDS011;17114;52.314;8.910;2023-04-03T03:32:46;8.98;;;2.15;;
30307;SDS011;17114;52.314;8.910;2023-04-03T03:35:13;5.30;;;2.17;;
30307;SDS011;17114;52.314;8.910;2023-04-03T03:37:40;5.00;;;2.00;;
30307;SDS011;17114;52.314;8.910;2023-04-03T03:40:08;7.18;;;2.13;;
30307;SDS011;17114;52.314;8.910;2023-04-03T03:42:38;6.80;;;2.40;;
30307;SDS011;17114;52.314;8.910;2023-04-03T03:45:07;7.15;;;3.10;;
30307;SDS011;17114;52.314;8.910;2023-04-03T03:47:36;6.25;;;2.10;;
30307;SDS011;17114;52.314;8.910;2023-04-03T03:50:04;8.57;;;2.20;;
30307;SDS011;17114;52.314;8.910;2023-04-03T03:52:36;6.43;;;2.10;;
30307;SDS011;17114;52.314;8.910;2023-04-03T03:55:03;11.93;;;1.90;;
30307;SDS011;17114;52.314;8.910;2023-04-03T03:57:30;7.65;;;2.50;;
30307;SDS011;17114;52.314;8.910;2023-04-03T03:59:58;6.45;;;2.33;;
30307;SDS011;17114;52.314;8.910;2023-04-03T04:02:28;7.45;;;2.15;;
30307;SDS011;17114;52.314;8.910;2023-04-03T04:04:56;7.65;;;2.10;;
30307;SDS011;17114;52.314;8.910;2023-04-03T04:07:25;5.32;;;2.33;;
30307;SDS011;17114;52.314;8.910;2023-04-03T04:09:55;6.40;;;2.17;;
30307;SDS011;17114;52.314;8.910;2023-04-03T04:12:23;9.25;;;2.10;;
30307;SDS011;17114;52.314;8.910;2023-04-03T04:14:50;8.07;;;1.90;;
30307;SDS011;17114;52.314;8.910;2023-04-03T04:17:19;5.53;;;2.13;;
30307;SDS011;17114;52.314;8.910;2023-04-03T04:19:46;8.43;;;2.28;;
30307;SDS011;17114;52.314;8.910;2023-04-03T04:22:17;9.15;;;2.20;;
30307;SDS011;17114;52.314;8.910;2023-04-03T04:24:44;4.00;;;1.88;;
30307;SDS011;17114;52.314;8.910;2023-04-03T04:27:13;7.78;;;1.90;;
30307;SDS011;17114;52.314;8.910;2023-04-03T04:29:42;7.25;;;1.95;;
30307;SDS011;17114;52.314;8.910;2023-04-03T04:32:09;8.32;;;3.20;;
30307;SDS011;17114;52.314;8.910;2023-04-03T04:34:37;9.45;;;2.83;;
30307;SDS011;17114;52.314;8.910;2023-04-03T04:37:04;10.18;;;2.67;;
30307;SDS011;17114;52.314;8.910;2023-04-03T04:39:31;6.18;;;2.15;;
30307;SDS011;17114;52.314;8.910;2023-04-03T04:41:58;12.55;;;3.28;;
30307;SDS011;17114;52.314;8.910;2023-04-03T04:44:26;10.30;;;2.45;;
30307;SDS011;17114;52.314;8.910;2023-04-03T04:46:54;7.22;;;2.20;;
30307;SDS011;17114;52.314;8.910;2023-04-03T04:49:23;5.38;;;2.30;;
30307;SDS011;17114;52.314;8.910;2023-04-03T04:51:51;10.45;;;2.17;;
30307;SDS011;17114;52.314;8.910;2023-04-03T04:54:20;6.60;;;2.05;;
30307;SDS011;17114;52.314;8.910;2023-04-03T04:56:49;7.32;;;2.22;;
30307;SDS011;17114;52.314;8.910;2023-04-03T04:59:16;6.55;;;2.25;;
30307;SDS011;17114;52.314;8.910;2023-04-03T05:01:47;8.95;;;2.17;;
30307;SDS011;17114;52.314;8.910;2023-04-03T05:04:14;14.00;;;2.55;;
30307;SDS011;17114;52.314;8.910;2023-04-03T05:06:41;9.90;;;2.47;;
30307;SDS011;17114;52.314;8.910;2023-04-03T05:09:10;7.03;;;2.28;;
30307;SDS011;17114;52.314;8.910;2023-04-03T05:11:39;12.48;;;2.60;;
30307;SDS011;17114;52.314;8.910;2023-04-03T05:14:07;11.20;;;2.75;;
30307;SDS011;17114;52.314;8.910;2023-04-03T05:16:36;7.47;;;2.65;;
30307;SDS011;17114;52.314;8.910;2023-04-03T05:19:04;11.75;;;2.63;;
30307;SDS011;17114;52.314;8.910;2023-04-03T05:21:37;8.77;;;2.22;;
30307;SDS011;17114;52.314;8.910;2023-04-03T05:24:06;6.22;;;2.67;;
30307;SDS011;17114;52.314;8.910;2023-04-03T05:26:36;11.93;;;2.40;;
30307;SDS011;17114;52.314;8.910;2023-04-03T05:29:06;10.07;;;2.35;;
30307;SDS011;17114;52.314;8.910;2023-04-03T05:31:33;7.95;;;2.60;;
30307;SDS011;17114;52.314;8.910;2023-04-03T05:34:00;7.90;;;2.53;;
30307;SDS011;17114;52.314;8.910;2023-04-03T05:36:29;12.95;;;2.30;;
30307;SDS011;17114;52.314;8.910;2023-04-03T05:38:59;8.60;;;2.42;;
30307;SDS011;17114;52.314;8.910;2023-04-03T05:41:27;6.75;;;2.60;;
30307;SDS011;17114;52.314;8.910;2023-04-03T05:43:54;11.35;;;2.53;;
30307;SDS011;17114;52.314;8.910;2023-04-03T05:46:23;5.68;;;2.42;;
30307;SDS011;17114;52.314;8.910;2023-04-03T05:48:50;12.77;;;3.65;;
30307;SDS011;17114;52.314;8.910;2023-04-03T05:51:19;14.65;;;3.47;;
30307;SDS011;17114;52.314;8.910;2023-04-03T05:54:16;13.98;;;2.42;;
30307;SDS011;17114;52.314;8.910;2023-04-03T05:56:46;6.55;;;2.42;;
30307;SDS011;17114;52.314;8.910;2023-04-03T05:59:12;9.57;;;2.22;;
30307;SDS011;17114;52.314;8.910;2023-04-03T06:01:40;7.22;;;2.38;;
30307;SDS011;17114;52.314;8.910;2023-04-03T06:04:08;9.98;;;2.38;;
30307;SDS011;17114;52.314;8.910;2023-04-03T06:06:48;9.70;;;2.53;;
30307;SDS011;17114;52.314;8.910;2023-04-03T06:09:22;9.15;;;2.50;;
30307;SDS011;17114;52.314;8.910;2023-04-03T06:11:52;7.57;;;2.08;;
30307;SDS011;17114;52.314;8.910;2023-04-03T06:14:20;6.07;;;2.33;;
30307;SDS011;17114;52.314;8.910;2023-04-03T06:16:48;7.03;;;2.40;;
30307;SDS011;17114;52.314;8.910;2023-04-03T06:19:16;8.38;;;2.05;;
30307;SDS011;17114;52.314;8.910;2023-04-03T06:21:43;6.88;;;2.03;;
30307;SDS011;17114;52.314;8.910;2023-04-03T06:24:12;11.60;;;2.30;;
30307;SDS011;17114;52.314;8.910;2023-04-03T06:26:42;9.18;;;3.17;;
30307;SDS011;17114;52.314;8.910;2023-04-03T06:29:09;7.72;;;2.13;;
30307;SDS011;17114;52.314;8.910;2023-04-03T06:31:36;6.57;;;1.95;;
30307;SDS011;17114;52.314;8.910;2023-04-03T06:34:04;5.38;;;1.75;;
30307;SDS011;17114;52.314;8.910;2023-04-03T06:36:35;4.35;;;2.17;;
30307;SDS011;17114;52.314;8.910;2023-04-03T06:39:02;7.32;;;2.25;;
30307;SDS011;17114;52.314;8.910;2023-04-03T06:41:29;5.68;;;1.88;;
30307;SDS011;17114;52.314;8.910;2023-04-03T06:43:57;6.72;;;2.13;;
30307;SDS011;17114;52.314;8.910;2023-04-03T06:46:25;6.93;;;1.98;;
30307;SDS011;17114;52.314;8.910;2023-04-03T06:48:53;7.07;;;2.17;;
30307;SDS011;17114;52.314;8.910;2023-04-03T06:51:25;5.78;;;2.10;;
30307;SDS011;17114;52.314;8.910;2023-04-03T06:53:54;6.25;;;2.10;;
30307;SDS011;17114;52.314;8.910;2023-04-03T06:56:23;8.65;;;2.20;;
30307;SDS011;17114;52.314;8.910;2023-04-03T06:58:52;8.15;;;2.78;;
30307;SDS011;17114;52.314;8.910;2023-04-03T07:01:24;11.00;;;2.95;;
30307;SDS011;17114;52.314;8.910;2023-04-03T07:03:54;7.72;;;2.63;;
30307;SDS011;17114;52.314;8.910;2023-04-03T07:06:22;8.20;;;2.08;;
30307;SDS011;17114;52.314;8.910;2023-04-03T07:08:49;9.43;;;2.53;;
30307;SDS011;17114;52.314;8.910;2023-04-03T07:11:17;5.72;;;1.90;;
30307;SDS011;17114;52.314;8.910;2023-04-03T07:13:44;11.20;;;2.42;;
30307;SDS011;17114;52.314;8.910;2023-04-03T07:16:11;4.25;;;1.85;;
30307;SDS011;17114;52.314;8.910;2023-04-03T07:18:38;10.60;;;2.20;;
30307;SDS011;17114;52.314;8.910;2023-04-03T07:21:06;5.25;;;1.80;;
30307;SDS011;17114;52.314;8.910;2023-04-03T07:23:36;7.15;;;2.10;;
30307;SDS011;17114;52.314;8.910;2023-04-03T07:26:03;8.52;;;2.03;;
30307;SDS011;17114;52.314;8.910;2023-04-03T07:28:33;9.13;;;2.33;;
30307;SDS011;17114;52.314;8.910;2023-04-03T07:31:02;11.65;;;1.85;;
30307;SDS011;17114;52.314;8.910;2023-04-03T07:33:31;7.07;;;2.08;;
30307;SDS011;17114;52.314;8.910;2023-04-03T07:35:59;8.15;;;2.17;;
30307;SDS011;17114;52.314;8.910;2023-04-03T07:38:27;6.95;;;2.33;;
30307;SDS011;17114;52.314;8.910;2023-04-03T07:40:55;12.50;;;2.53;;
30307;SDS011;17114;52.314;8.910;2023-04-03T07:43:22;8.63;;;1.95;;
30307;SDS011;17114;52.314;8.910;2023-04-03T07:45:51;10.82;;;2.58;;
30307;SDS011;17114;52.314;8.910;2023-04-03T07:48:24;6.57;;;1.80;;
30307;SDS011;17114;52.314;8.910;2023-04-03T07:50:52;4.93;;;2.05;;
30307;SDS011;17114;52.314;8.910;2023-04-03T07:53:21;7.97;;;1.90;;
30307;SDS011;17114;52.314;8.910;2023-04-03T07:55:51;8.75;;;2.28;;
30307;SDS011;17114;52.314;8.910;2023-04-03T07:58:22;6.63;;;1.92;;
30307;SDS011;17114;52.314;8.910;2023-04-03T08:00:49;10.55;;;2.28;;
30307;SDS011;17114;52.314;8.910;2023-04-03T08:03:16;6.93;;;1.83;;
30307;SDS011;17114;52.314;8.910;2023-04-03T08:05:45;11.93;;;2.58;;
30307;SDS011;17114;52.314;8.910;2023-04-03T08:08:16;6.10;;;1.80;;
30307;SDS011;17114;52.314;8.910;2023-04-03T08:10:50;8.40;;;1.98;;
30307;SDS011;17114;52.314;8.910;2023-04-03T08:13:20;7.45;;;2.70;;
30307;SDS011;17114;52.314;8.910;2023-04-03T08:15:47;7.55;;;2.30;;
30307;SDS011;17114;52.314;8.910;2023-04-03T08:18:15;7.95;;;2.28;;
30307;SDS011;17114;52.314;8.910;2023-04-03T08:20:43;4.78;;;2.38;;
30307;SDS011;17114;52.314;8.910;2023-04-03T08:23:10;7.95;;;2.03;;
30307;SDS011;17114;52.314;8.910;2023-04-03T08:25:42;13.93;;;2.42;;
30307;SDS011;17114;52.314;8.910;2023-04-03T08:28:10;8.90;;;2.22;;
30307;SDS011;17114;52.314;8.910;2023-04-03T08:30:41;7.80;;;2.20;;
30307;SDS011;17114;52.314;8.910;2023-04-03T08:33:10;8.40;;;2.22;;
30307;SDS011;17114;52.314;8.910;2023-04-03T08:35:40;7.65;;;2.20;;
30307;SDS011;17114;52.314;8.910;2023-04-03T08:38:09;7.70;;;1.95;;
30307;SDS011;17114;52.314;8.910;2023-04-03T08:40:39;4.97;;;1.88;;
30307;SDS011;17114;52.314;8.910;2023-04-03T08:46:13;6.72;;;1.73;;
30307;SDS011;17114;52.314;8.910;2023-04-03T08:48:43;8.55;;;1.80;;
30307;SDS011;17114;52.314;8.910;2023-04-03T08:51:17;7.20;;;1.80;;
30307;SDS011;17114;52.314;8.910;2023-04-03T08:53:56;8.77;;;2.78;;
30307;SDS011;17114;52.314;8.910;2023-04-03T08:56:34;6.50;;;2.08;;
30307;SDS011;17114;52.314;8.910;2023-04-03T08:59:06;6.30;;;2.25;;
30307;SDS011;17114;52.314;8.910;2023-04-03T09:01:40;4.68;;;1.85;;
30307;SDS011;17114;52.314;8.910;2023-04-03T09:04:12;4.40;;;1.60;;
30307;SDS011;17114;52.314;8.910;2023-04-03T09:06:55;8.15;;;2.10;;
30307;SDS011;17114;52.314;8.910;2023-04-03T09:14:39;7.57;;;2.37;;
30307;SDS011;17114;52.314;8.910;2023-04-03T09:17:41;7.55;;;2.10;;
30307;SDS011;17114;52.314;8.910;2023-04-03T09:26:41;3.63;;;1.75;;
30307;SDS011;17114;52.314;8.910;2023-04-03T09:29:06;6.85;;;1.60;;
30307;SDS011;17114;52.314;8.910;2023-04-03T09:31:39;4.63;;;1.52;;
30307;SDS011;17114;52.314;8.910;2023-04-03T09:34:14;7.70;;;3.13;;
30307;SDS011;17114;52.314;8.910;2023-04-03T09:39:26;6.55;;;2.17;;
30307;SDS011;17114;52.314;8.910;2023-04-03T09:42:01;10.00;;;2.22;;
30307;SDS011;17114;52.314;8.910;2023-04-03T09:44:37;4.57;;;1.70;;
30307;SDS011;17114;52.314;8.910;2023-04-03T09:47:19;6.65;;;1.75;;
30307;SDS011;17114;52.314;8.910;2023-04-03T09:50:52;9.32;;;1.73;;
30307;SDS011;17114;52.314;8.910;2023-04-03T09:52:48;2.95;;;1.70;;
30307;SDS011;17114;52.314;8.910;2023-04-03T09:55:22;3.13;;;1.40;;
30307;SDS011;17114;52.314;8.910;2023-04-03T09:57:57;5.60;;;1.70;;
30307;SDS011;17114;52.314;8.910;2023-04-03T10:00:36;6.30;;;2.10;;
30307;SDS011;17114;52.314;8.910;2023-04-03T10:03:24;6.43;;;1.92;;
30307;SDS011;17114;52.314;8.910;2023-04-03T10:06:03;4.68;;;1.70;;
30307;SDS011;17114;52.314;8.910;2023-04-03T10:08:58;7.37;;;1.50;;
30307;SDS011;17114;52.314;8.910;2023-04-03T10:11:27;11.80;;;2.47;;
30307;SDS011;17114;52.314;8.910;2023-04-03T10:13:56;5.35;;;1.90;;
30307;SDS011;17114;52.314;8.910;2023-04-03T10:16:32;4.88;;;2.05;;
30307;SDS011;17114;52.314;8.910;2023-04-03T10:19:17;6.25;;;2.35;;
30307;SDS011;17114;52.314;8.910;2023-04-03T10:22:13;5.60;;;2.00;;
30307;SDS011;17114;52.314;8.910;2023-04-03T10:38:43;3.72;;;1.15;;
30307;SDS011;17114;52.314;8.910;2023-04-03T10:52:31;5.25;;;1.40;;
30307;SDS011;17114;52.314;8.910;2023-04-03T10:55:30;4.65;;;1.30;;
30307;SDS011;17114;52.314;8.910;2023-04-03T10:58:05;10.02;;;1.33;;
30307;SDS011;17114;52.314;8.910;2023-04-03T11:00:42;4.38;;;1.60;;
30307;SDS011;17114;52.314;8.910;2023-04-03T11:03:17;6.78;;;1.70;;
30307;SDS011;17114;52.314;8.910;2023-04-03T11:05:53;5.63;;;1.38;;
30307;SDS011;17114;52.314;8.910;2023-04-03T11:10:55;6.15;;;1.60;;
30307;SDS011;17114;52.314;8.910;2023-04-03T11:13:33;4.88;;;1.70;;
30307;SDS011;17114;52.314;8.910;2023-04-03T11:16:12;8.85;;;2.22;;
30307;SDS011;17114;52.314;8.910;2023-04-03T11:21:28;5.60;;;1.45;;
30307;SDS011;17114;52.314;8.910;2023-04-03T11:24:03;4.03;;;1.67;;
30307;SDS011;17114;52.314;8.910;2023-04-03T11:26:36;7.10;;;1.98;;
30307;SDS011;17114;52.314;8.910;2023-04-03T11:29:12;8.13;;;1.90;;
30307;SDS011;17114;52.314;8.910;2023-04-03T11:35:04;4.05;;;1.60;;
30307;SDS011;17114;52.314;8.910;2023-04-03T11:37:40;6.85;;;2.00;;
30307;SDS011;17114;52.314;8.910;2023-04-03T11:42:45;5.53;;;1.77;;
30307;SDS011;17114;52.314;8.910;2023-04-03T11:45:26;5.35;;;1.88;;
30307;SDS011;17114;52.314;8.910;2023-04-03T11:48:48;7.40;;;2.25;;
30307;SDS011;17114;52.314;8.910;2023-04-03T11:50:55;11.70;;;2.88;;
30307;SDS011;17114;52.314;8.910;2023-04-03T11:56:00;7.85;;;2.63;;
30307;SDS011;17114;52.314;8.910;2023-04-03T11:58:32;8.02;;;2.42;;
30307;SDS011;17114;52.314;8.910;2023-04-03T12:13:41;4.32;;;1.73;;
30307;SDS011;17114;52.314;8.910;2023-04-03T12:16:33;5.43;;;1.48;;
30307;SDS011;17114;52.314;8.910;2023-04-03T12:31:53;4.03;;;1.50;;
30307;SDS011;17114;52.314;8.910;2023-04-03T12:40:08;4.95;;;1.60;;
30307;SDS011;17114;52.314;8.910;2023-04-03T12:45:41;5.53;;;2.03;;
30307;SDS011;17114;52.314;8.910;2023-04-03T12:48:21;3.05;;;1.55;;
30307;SDS011;17114;52.314;8.910;2023-04-03T12:50:53;4.90;;;1.50;;
30307;SDS011;17114;52.314;8.910;2023-04-03T12:53:24;4.15;;;1.50;;
30307;SDS011;17114;52.314;8.910;2023-04-03T12:55:54;3.13;;;1.40;;
30307;SDS011;17114;52.314;8.910;2023-04-03T12:58:23;3.58;;;1.35;;
30307;SDS011;17114;52.314;8.910;2023-04-03T13:01:02;4.63;;;1.45;;
30307;SDS011;17114;52.314;8.910;2023-04-03T13:03:37;8.13;;;1.67;;
30307;SDS011;17114;52.314;8.910;2023-04-03T13:06:10;4.82;;;1.65;;
30307;SDS011;17114;52.314;8.910;2023-04-03T13:08:48;3.00;;;1.30;;
30307;SDS011;17114;52.314;8.910;2023-04-03T13:11:20;6.75;;;1.60;;
30307;SDS011;17114;52.314;8.910;2023-04-03T13:14:02;2.78;;;1.30;;
30307;SDS011;17114;52.314;8.910;2023-04-03T13:16:32;3.30;;;1.30;;
30307;SDS011;17114;52.314;8.910;2023-04-03T13:19:02;3.42;;;1.50;;
30307;SDS011;17114;52.314;8.910;2023-04-03T13:21:31;4.82;;;1.38;;
30307;SDS011;17114;52.314;8.910;2023-04-03T13:24:06;4.55;;;1.20;;
30307;SDS011;17114;52.314;8.910;2023-04-03T13:26:40;4.72;;;1.20;;
30307;SDS011;17114;52.314;8.910;2023-04-03T13:29:19;2.75;;;1.15;;
30307;SDS011;17114;52.314;8.910;2023-04-03T13:31:57;6.00;;;1.40;;
30307;SDS011;17114;52.314;8.910;2023-04-03T13:34:37;6.00;;;1.33;;
30307;SDS011;17114;52.314;8.910;2023-04-03T13:37:19;3.17;;;1.30;;
30307;SDS011;17114;52.314;8.910;2023-04-03T13:39:56;2.30;;;1.23;;
30307;SDS011;17114;52.314;8.910;2023-04-03T13:43:05;4.45;;;1.55;;
30307;SDS011;17114;52.314;8.910;2023-04-03T13:46:01;4.38;;;1.38;;
30307;SDS011;17114;52.314;8.910;2023-04-03T13:48:50;4.90;;;1.27;;
30307;SDS011;17114;52.314;8.910;2023-04-03T13:51:21;4.25;;;1.45;;
30307;SDS011;17114;52.314;8.910;2023-04-03T13:53:53;4.05;;;1.30;;
30307;SDS011;17114;52.314;8.910;2023-04-03T13:56:36;3.97;;;1.30;;
30307;SDS011;17114;52.314;8.910;2023-04-03T13:59:20;4.53;;;1.50;;
30307;SDS011;17114;52.314;8.910;2023-04-03T14:04:52;4.03;;;1.50;;
30307;SDS011;17114;52.314;8.910;2023-04-03T14:07:56;4.65;;;1.60;;
30307;SDS011;17114;52.314;8.910;2023-04-03T16:56:33;2.60;;;1.23;;
30307;SDS011;17114;52.314;8.910;2023-04-03T16:59:00;4.63;;;1.30;;
30307;SDS011;17114;52.314;8.910;2023-04-03T17:01:28;5.30;;;1.90;;
30307;SDS011;17114;52.314;8.910;2023-04-03T17:03:56;2.78;;;1.52;;
30307;SDS011;17114;52.314;8.910;2023-04-03T17:06:23;3.30;;;1.73;;
30307;SDS011;17114;52.314;8.910;2023-04-03T17:08:50;3.10;;;1.98;;
30307;SDS011;17114;52.314;8.910;2023-04-03T17:11:18;5.90;;;2.25;;
30307;SDS011;17114;52.314;8.910;2023-04-03T17:13:46;4.60;;;1.88;;
30307;SDS011;17114;52.314;8.910;2023-04-03T17:16:14;6.30;;;2.17;;
30307;SDS011;17114;52.314;8.910;2023-04-03T17:18:42;4.10;;;1.60;;
30307;SDS011;17114;52.314;8.910;2023-04-03T17:21:11;2.42;;;1.58;;
30307;SDS011;17114;52.314;8.910;2023-04-03T17:23:39;4.68;;;2.00;;
30307;SDS011;17114;52.314;8.910;2023-04-03T17:26:08;3.15;;;1.58;;
30307;SDS011;17114;52.314;8.910;2023-04-03T17:28:35;3.38;;;1.60;;
30307;SDS011;17114;52.314;8.910;2023-04-03T17:31:03;3.50;;;1.90;;
30307;SDS011;17114;52.314;8.910;2023-04-03T17:33:31;3.63;;;1.65;;
30307;SDS011;17114;52.314;8.910;2023-04-03T17:35:59;4.53;;;1.55;;
30307;SDS011;17114;52.314;8.910;2023-04-03T17:38:29;5.43;;;1.63;;
30307;SDS011;17114;52.314;8.910;2023-04-03T17:40:59;6.03;;;2.30;;
30307;SDS011;17114;52.314;8.910;2023-04-03T17:43:28;2.92;;;1.75;;
30307;SDS011;17114;52.314;8.910;2023-04-03T17:45:59;6.53;;;2.00;;
30307;SDS011;17114;52.314;8.910;2023-04-03T17:48:30;5.25;;;1.83;;
30307;SDS011;17114;52.314;8.910;2023-04-03T17:51:02;5.45;;;2.25;;
30307;SDS011;17114;52.314;8.910;2023-04-03T17:53:31;3.80;;;1.33;;
30307;SDS011;17114;52.314;8.910;2023-04-03T17:56:04;4.70;;;1.50;;
30307;SDS011;17114;52.314;8.910;2023-04-03T17:58:40;5.30;;;1.88;;
30307;SDS011;17114;52.314;8.910;2023-04-03T18:01:10;4.22;;;1.73;;
30307;SDS011;17114;52.314;8.910;2023-04-03T18:03:41;4.05;;;1.70;;
30307;SDS011;17114;52.314;8.910;2023-04-03T18:06:14;5.60;;;2.30;;
30307;SDS011;17114;52.314;8.910;2023-04-03T18:08:53;6.37;;;2.27;;
30307;SDS011;17114;52.314;8.910;2023-04-03T18:11:24;3.63;;;1.70;;
30307;SDS011;17114;52.314;8.910;2023-04-03T18:13:54;4.60;;;1.65;;
30307;SDS011;17114;52.314;8.910;2023-04-03T18:16:27;5.70;;;2.05;;
30307;SDS011;17114;52.314;8.910;2023-04-03T18:18:54;4.53;;;2.15;;
30307;SDS011;17114;52.314;8.910;2023-04-03T18:21:41;6.18;;;2.60;;
30307;SDS011;17114;52.314;8.910;2023-04-03T18:24:12;6.57;;;2.60;;
30307;SDS011;17114;52.314;8.910;2023-04-03T18:26:41;4.80;;;2.58;;
30307;SDS011;17114;52.314;8.910;2023-04-03T18:29:12;6.15;;;2.83;;
30307;SDS011;17114;52.314;8.910;2023-04-03T18:31:40;7.10;;;2.45;;
30307;SDS011;17114;52.314;8.910;2023-04-03T18:34:12;6.47;;;2.33;;
30307;SDS011;17114;52.314;8.910;2023-04-03T18:36:39;4.18;;;1.98;;
30307;SDS011;17114;52.314;8.910;2023-04-03T18:39:07;7.90;;;2.40;;
30307;SDS011;17114;52.314;8.910;2023-04-03T18:41:35;9.20;;;3.10;;
30307;SDS011;17114;52.314;8.910;2023-04-03T18:44:04;6.15;;;2.60;;
30307;SDS011;17114;52.314;8.910;2023-04-03T18:46:35;6.80;;;2.97;;
30307;SDS011;17114;52.314;8.910;2023-04-03T18:49:03;7.35;;;3.58;;
30307;SDS011;17114;52.314;8.910;2023-04-03T18:51:30;8.68;;;4.00;;
30307;SDS011;17114;52.314;8.910;2023-04-03T18:53:58;8.70;;;4.15;;
30307;SDS011;17114;52.314;8.910;2023-04-03T18:56:27;8.35;;;3.58;;
30307;SDS011;17114;52.314;8.910;2023-04-03T18:58:56;8.15;;;3.83;;
30307;SDS011;17114;52.314;8.910;2023-04-03T19:01:23;11.52;;;4.78;;
30307;SDS011;17114;52.314;8.910;2023-04-03T19:03:51;12.38;;;4.82;;
30307;SDS011;17114;52.314;8.910;2023-04-03T19:06:19;17.17;;;6.95;;
30307;SDS011;17114;52.314;8.910;2023-04-03T19:08:47;14.65;;;5.70;;
30307;SDS011;17114;52.314;8.910;2023-04-03T19:11:17;17.83;;;8.30;;
30307;SDS011;17114;52.314;8.910;2023-04-03T19:13:44;14.18;;;6.93;;
30307;SDS011;17114;52.314;8.910;2023-04-03T19:16:33;16.52;;;8.02;;
30307;SDS011;17114;52.314;8.910;2023-04-03T19:19:01;15.45;;;7.05;;
30307;SDS011;17114;52.314;8.910;2023-04-03T19:21:29;10.23;;;5.13;;
30307;SDS011;17114;52.314;8.910;2023-04-03T19:23:56;7.88;;;4.72;;
30307;SDS011;17114;52.314;8.910;2023-04-03T19:26:25;8.35;;;4.18;;
30307;SDS011;17114;52.314;8.910;2023-04-03T19:28:53;10.52;;;5.28;;
30307;SDS011;17114;52.314;8.910;2023-04-03T19:31:21;10.18;;;4.32;;
30307;SDS011;17114;52.314;8.910;2023-04-03T19:33:49;6.90;;;3.58;;